createdAt,value
2023-04-25T00:00:30.624Z,4.09
2023-04-25T00:02:57.131Z,3.83
2023-04-25T00:05:23.613Z,3.66
2023-04-25T00:07:49.926Z,3.70
2023-04-25T00:10:16.193Z,3.69
2023-04-25T00:12:42.434Z,3.65
2023-04-25T00:15:08.676Z,3.68
2023-04-25T00:17:34.950Z,4.10
2023-04-25T00:20:01.227Z,3.61
2023-04-25T00:22:27.474Z,3.95
2023-04-25T00:24:53.722Z,3.82
2023-04-25T00:27:19.971Z,4.12
2023-04-25T00:29:46.222Z,4.10
2023-04-25T00:32:12.499Z,3.99
2023-04-25T00:34:38.762Z,4.14
2023-04-25T00:37:05.014Z,4.20
2023-04-25T00:39:31.288Z,4.23
2023-04-25T00:41:57.574Z,4.37
2023-04-25T00:44:23.852Z,4.39
2023-04-25T00:46:50.213Z,3.88
2023-04-25T00:49:16.518Z,4.47
2023-04-25T00:51:42.930Z,4.33
2023-04-25T00:54:09.214Z,4.59
2023-04-25T00:56:35.458Z,4.40
2023-04-25T00:59:01.717Z,4.37
2023-04-25T01:01:28.047Z,4.67
2023-04-25T01:03:54.642Z,5.06
2023-04-25T01:06:21.368Z,4.66
2023-04-25T01:08:47.624Z,5.02
2023-04-25T01:11:13.870Z,4.86
2023-04-25T01:13:40.134Z,5.00
2023-04-25T01:16:06.425Z,5.26
2023-04-25T01:18:32.729Z,4.73
2023-04-25T01:20:58.996Z,4.45
2023-04-25T01:23:25.245Z,4.44
2023-04-25T01:25:51.503Z,4.53
2023-04-25T01:28:17.771Z,4.04
2023-04-25T01:30:44.034Z,4.31
2023-04-25T01:33:10.301Z,4.32
2023-04-25T01:35:36.548Z,3.54
2023-04-25T01:38:02.860Z,3.96
2023-04-25T01:40:29.136Z,3.73
2023-04-25T01:42:55.423Z,3.87
2023-04-25T01:45:21.709Z,3.48
2023-04-25T01:47:48.063Z,3.19
2023-04-25T01:50:14.370Z,3.15
2023-04-25T01:52:40.647Z,3.32
2023-04-25T01:55:06.921Z,3.44
2023-04-25T01:57:33.169Z,3.27
2023-04-25T01:59:59.429Z,3.16
2023-04-25T02:02:25.886Z,3.24
2023-04-25T02:04:52.257Z,3.21
2023-04-25T02:07:18.526Z,2.67
2023-04-25T02:09:44.769Z,2.55
2023-04-25T02:12:11.033Z,2.97
2023-04-25T02:14:37.298Z,3.02
2023-04-25T02:17:03.592Z,2.83
2023-04-25T02:19:29.889Z,3.30
2023-04-25T02:21:56.161Z,3.06
2023-04-25T02:24:22.428Z,3.09
2023-04-25T02:26:48.692Z,3.36
2023-04-25T02:29:14.936Z,3.38
2023-04-25T02:31:41.244Z,3.15
2023-04-25T02:34:07.538Z,3.14
2023-04-25T02:36:33.792Z,3.11
2023-04-25T02:39:00.084Z,3.37
2023-04-25T02:41:26.363Z,3.19
2023-04-25T02:43:52.917Z,3.10
2023-04-25T02:46:28.678Z,3.31
2023-04-25T02:49:04.429Z,3.28
2023-04-25T02:51:30.680Z,3.14
2023-04-25T02:53:56.951Z,3.08
2023-04-25T02:56:23.210Z,2.92
2023-04-25T02:58:49.460Z,3.38
2023-04-25T03:01:15.718Z,3.58
2023-04-25T03:03:42.057Z,3.25
2023-04-25T03:06:08.360Z,3.59
2023-04-25T03:08:35.673Z,3.85
2023-04-25T03:11:01.922Z,3.78
2023-04-25T03:13:28.202Z,3.95
2023-04-25T03:15:54.468Z,3.89
2023-04-25T03:18:20.708Z,3.84
2023-04-25T03:20:46.967Z,3.69
2023-04-25T03:23:13.228Z,4.22
2023-04-25T03:25:39.545Z,3.90
2023-04-25T03:28:05.832Z,4.23
2023-04-25T03:30:32.115Z,3.90
2023-04-25T03:32:58.395Z,3.97
2023-04-25T03:35:26.014Z,3.77
2023-04-25T03:37:52.422Z,3.45
2023-04-25T03:40:18.677Z,3.03
2023-04-25T03:42:45.112Z,2.60
2023-04-25T03:45:11.481Z,2.51
2023-04-25T03:47:37.763Z,2.39
2023-04-25T03:50:04.107Z,2.42
2023-04-25T03:52:30.375Z,2.07
2023-04-25T03:54:56.648Z,2.03
2023-04-25T03:57:22.917Z,2.27
2023-04-25T03:59:49.195Z,2.15
2023-04-25T04:02:15.541Z,2.34
2023-04-25T04:04:42.241Z,2.43
2023-04-25T04:07:08.717Z,2.48
2023-04-25T04:09:34.984Z,2.63
2023-04-25T04:12:01.236Z,2.55
2023-04-25T04:14:27.507Z,2.91
2023-04-25T04:16:53.774Z,2.83
2023-04-25T04:19:20.080Z,2.76
2023-04-25T04:21:46.319Z,2.74
2023-04-25T04:24:12.569Z,2.64
2023-04-25T04:26:38.827Z,2.63
2023-04-25T04:29:05.092Z,2.74
2023-04-25T04:31:31.426Z,2.93
2023-04-25T04:33:57.738Z,3.03
2023-04-25T04:36:23.977Z,2.88
2023-04-25T04:38:50.236Z,2.94
2023-04-25T04:41:16.501Z,2.94
2023-04-25T04:43:42.746Z,2.94
2023-04-25T04:46:09.027Z,3.06
2023-04-25T04:48:35.425Z,2.89
2023-04-25T04:51:01.725Z,2.85
2023-04-25T04:53:27.984Z,2.63
2023-04-25T04:55:54.254Z,2.91
2023-04-25T04:58:20.505Z,2.68
2023-04-25T05:00:46.802Z,2.83
2023-04-25T05:03:13.219Z,2.77
2023-04-25T05:05:39.666Z,2.73
2023-04-25T05:08:05.929Z,2.74
2023-04-25T05:10:32.209Z,2.79
2023-04-25T05:12:58.478Z,2.60
2023-04-25T05:15:24.729Z,2.55
2023-04-25T05:17:51.060Z,2.53
2023-04-25T05:20:17.325Z,2.68
2023-04-25T05:22:43.593Z,2.51
2023-04-25T05:25:09.867Z,2.57
2023-04-25T05:27:36.136Z,2.46
2023-04-25T05:30:02.413Z,2.70
2023-04-25T05:32:28.705Z,2.37
2023-04-25T05:34:55.082Z,2.15
2023-04-25T05:37:21.380Z,2.21
2023-04-25T05:39:47.645Z,2.19
2023-04-25T05:42:13.913Z,2.12
2023-04-25T05:44:40.180Z,2.40
2023-04-25T05:47:06.422Z,2.46
2023-04-25T05:49:32.675Z,2.63
2023-04-25T05:51:58.931Z,2.78
2023-04-25T05:54:25.224Z,2.80
2023-04-25T05:56:51.497Z,2.71
2023-04-25T05:59:17.750Z,2.54
2023-04-25T06:01:44.001Z,2.60
2023-04-25T06:04:10.501Z,2.98
2023-04-25T06:06:36.954Z,2.85
2023-04-25T06:09:03.210Z,2.84
2023-04-25T06:11:29.454Z,2.77
2023-04-25T06:13:55.720Z,2.76
2023-04-25T06:16:22.016Z,2.76
2023-04-25T06:18:48.320Z,2.65
2023-04-25T06:21:15.008Z,2.70
2023-04-25T06:23:41.278Z,2.32
2023-04-25T06:26:07.546Z,2.55
2023-04-25T06:28:33.832Z,2.43
2023-04-25T06:31:00.200Z,2.37
2023-04-25T06:33:26.468Z,2.29
2023-04-25T06:35:52.737Z,2.32
2023-04-25T06:38:19.026Z,2.32
2023-04-25T06:40:45.293Z,2.03
2023-04-25T06:43:11.639Z,2.34
2023-04-25T06:45:37.898Z,2.12
2023-04-25T06:48:04.186Z,2.03
2023-04-25T06:50:30.473Z,2.33
2023-04-25T06:52:56.750Z,2.09
2023-04-25T06:55:23.012Z,1.96
2023-04-25T06:57:49.259Z,2.14
2023-04-25T07:00:15.535Z,2.03
2023-04-25T07:02:41.919Z,2.10
2023-04-25T07:05:08.287Z,2.25
2023-04-25T07:07:34.537Z,1.98
2023-04-25T07:10:00.805Z,2.07
2023-04-25T07:12:27.059Z,1.96
2023-04-25T07:14:53.564Z,2.07
2023-04-25T07:17:19.881Z,2.03
2023-04-25T07:19:46.159Z,2.26
2023-04-25T07:22:12.417Z,2.27
2023-04-25T07:24:38.678Z,2.29
2023-04-25T07:27:04.945Z,2.34
2023-04-25T07:29:31.193Z,2.18
2023-04-25T07:31:57.483Z,2.24
2023-04-25T07:34:23.780Z,2.23
2023-04-25T07:36:50.036Z,2.09
2023-04-25T07:39:16.330Z,2.29
2023-04-25T07:41:42.616Z,2.19
2023-04-25T07:44:08.891Z,2.33
2023-04-25T07:46:35.223Z,2.63
2023-04-25T07:49:01.570Z,2.74
2023-04-25T07:51:27.850Z,2.42
2023-04-25T07:53:54.137Z,2.44
2023-04-25T07:56:20.417Z,2.49
2023-04-25T07:58:46.672Z,2.41
2023-04-25T08:01:12.933Z,2.76
2023-04-25T08:03:39.364Z,2.66
2023-04-25T08:06:07.943Z,2.57
2023-04-25T08:08:34.754Z,2.46
2023-04-25T08:11:01.007Z,2.60
2023-04-25T08:13:27.277Z,2.70
2023-04-25T08:15:53.586Z,2.83
2023-04-25T08:18:19.890Z,2.56
2023-04-25T08:20:46.176Z,2.53
2023-04-25T08:23:12.464Z,2.47
2023-04-25T08:25:38.724Z,2.83
2023-04-25T08:28:04.973Z,3.11
2023-04-25T08:30:31.224Z,3.27
2023-04-25T08:32:57.547Z,4.10
2023-04-25T08:35:23.858Z,3.18
2023-04-25T08:37:50.138Z,3.36
2023-04-25T08:40:16.406Z,4.04
2023-04-25T08:42:42.680Z,4.53
2023-04-25T08:45:08.955Z,4.19
2023-04-25T08:47:35.255Z,4.09
2023-04-25T08:50:01.531Z,4.13
2023-04-25T08:52:27.933Z,3.83
2023-04-25T08:54:54.395Z,3.79
2023-04-25T08:57:20.822Z,3.35
2023-04-25T08:59:47.253Z,3.56
2023-04-25T09:02:13.693Z,3.48
2023-04-25T09:04:40.154Z,3.44
2023-04-25T09:07:06.653Z,3.97
2023-04-25T09:09:33.168Z,3.41
2023-04-25T09:11:59.620Z,3.50
2023-04-25T09:14:26.012Z,2.41
2023-04-25T09:16:52.466Z,1.47
2023-04-25T09:19:19.000Z,1.27
2023-04-25T09:21:46.640Z,1.21
2023-04-25T09:24:13.039Z,1.38
2023-04-25T09:26:39.424Z,1.34
2023-04-25T09:29:05.895Z,1.33
2023-04-25T09:31:32.294Z,1.40
2023-04-25T09:33:58.764Z,1.40
2023-04-25T09:36:25.236Z,1.33
2023-04-25T09:38:51.627Z,1.37
2023-04-25T09:41:18.054Z,1.20
2023-04-25T09:43:44.449Z,1.25
2023-04-25T09:46:11.029Z,1.50
2023-04-25T09:48:37.411Z,1.56
2023-04-25T09:51:03.799Z,1.55
2023-04-25T09:53:30.376Z,1.75
2023-04-25T09:55:56.775Z,1.40
2023-04-25T09:58:23.125Z,1.23
2023-04-25T10:00:49.548Z,1.11
2023-04-25T10:03:15.983Z,1.20
2023-04-25T10:05:42.708Z,1.03
2023-04-25T10:08:09.056Z,1.24
2023-04-25T10:10:35.487Z,1.12
2023-04-25T10:13:01.954Z,1.04
2023-04-25T10:15:28.388Z,1.01
2023-04-25T10:17:54.864Z,1.11
2023-04-25T10:20:21.332Z,1.17
2023-04-25T10:22:47.724Z,1.45
2023-04-25T10:25:14.154Z,1.06
2023-04-25T10:27:40.617Z,1.05
2023-04-25T10:30:07.167Z,0.93
2023-04-25T10:32:33.746Z,0.83
2023-04-25T10:35:00.137Z,0.88
2023-04-25T10:37:26.576Z,0.90
2023-04-25T10:39:52.960Z,1.00
2023-04-25T10:42:19.396Z,1.02
2023-04-25T10:44:45.764Z,1.02
2023-04-25T10:47:12.271Z,0.83
2023-04-25T10:49:38.697Z,0.84
2023-04-25T10:52:05.148Z,1.08
2023-04-25T10:54:31.574Z,1.04
2023-04-25T10:56:58.041Z,1.09
2023-04-25T10:59:24.440Z,1.21
2023-04-25T11:01:50.991Z,1.30
2023-04-25T11:04:17.532Z,0.94
2023-04-25T11:06:44.051Z,1.05
2023-04-25T11:09:10.473Z,1.11
2023-04-25T11:11:36.878Z,0.99
2023-04-25T11:14:03.333Z,1.03
2023-04-25T11:16:29.820Z,0.94
2023-04-25T11:18:56.215Z,1.28
2023-04-25T11:21:22.595Z,0.89
2023-04-25T11:23:49.199Z,1.14
2023-04-25T11:26:15.662Z,1.05
2023-04-25T11:28:42.047Z,1.17
2023-04-25T11:31:08.497Z,1.18
2023-04-25T11:33:34.966Z,1.23
2023-04-25T11:36:01.495Z,1.15
2023-04-25T11:38:29.268Z,1.12
2023-04-25T11:40:55.822Z,1.15
2023-04-25T11:43:22.245Z,1.07
2023-04-25T11:45:48.617Z,1.20
2023-04-25T11:48:15.248Z,1.07
2023-04-25T11:50:42.109Z,1.43
2023-04-25T11:53:08.422Z,1.04
2023-04-25T11:55:34.737Z,1.02
2023-04-25T11:58:01.087Z,1.28
2023-04-25T12:00:27.483Z,1.16
2023-04-25T12:02:54.013Z,1.16
2023-04-25T12:05:32.128Z,1.10
2023-04-25T12:07:59.444Z,1.08
2023-04-25T12:10:25.864Z,1.16
2023-04-25T12:12:52.220Z,1.09
2023-04-25T12:15:18.606Z,1.14
2023-04-25T12:17:45.110Z,1.24
2023-04-25T12:20:11.464Z,1.30
2023-04-25T12:22:37.905Z,1.17
2023-04-25T12:25:04.312Z,1.19
2023-04-25T12:27:30.717Z,1.19
2023-04-25T12:29:57.202Z,1.04
2023-04-25T12:32:23.721Z,1.21
2023-04-25T12:34:50.164Z,1.15
2023-04-25T12:37:16.562Z,1.44
2023-04-25T12:39:42.971Z,1.33
2023-04-25T12:42:10.004Z,1.48
2023-04-25T12:44:36.533Z,1.44
2023-04-25T12:47:02.909Z,1.39
2023-04-25T12:49:29.260Z,1.18
2023-04-25T12:51:55.707Z,1.51
2023-04-25T12:54:22.070Z,1.59
2023-04-25T12:56:48.416Z,1.47
2023-04-25T12:59:14.791Z,1.56
2023-04-25T13:01:41.367Z,1.48
2023-04-25T13:04:07.997Z,1.80
2023-04-25T13:06:34.548Z,1.89
2023-04-25T13:09:00.955Z,2.02
2023-04-25T13:11:27.460Z,1.98
2023-04-25T13:13:54.124Z,2.06
2023-04-25T13:16:20.982Z,1.81
2023-04-25T13:18:47.443Z,1.70
2023-04-25T13:21:13.990Z,2.41
2023-04-25T13:23:40.316Z,2.38
2023-04-25T13:26:06.701Z,1.78
2023-04-25T13:28:33.086Z,1.74
2023-04-25T13:30:59.581Z,1.69
2023-04-25T13:33:25.991Z,1.91
2023-04-25T13:35:52.364Z,1.78
2023-04-25T13:38:18.757Z,1.98
2023-04-25T13:40:45.161Z,1.82
2023-04-25T13:43:11.476Z,1.74
2023-04-25T13:45:37.904Z,1.87
2023-04-25T13:48:04.455Z,1.62
2023-04-25T13:50:30.899Z,1.64
2023-04-25T13:52:57.261Z,1.59
2023-04-25T13:55:23.519Z,1.43
2023-04-25T13:57:49.772Z,1.69
2023-04-25T14:00:16.023Z,1.83
2023-04-25T14:02:42.345Z,1.72
2023-04-25T14:05:08.760Z,2.15
2023-04-25T14:07:35.076Z,1.73
2023-04-25T14:10:01.342Z,1.95
2023-04-25T14:14:22.487Z,1.77
2023-04-25T14:16:48.945Z,1.67
2023-04-25T14:19:15.418Z,1.86
2023-04-25T14:21:42.449Z,2.55
2023-04-25T14:24:10.016Z,1.86
2023-04-25T14:26:36.518Z,1.76
2023-04-25T14:29:02.987Z,1.76
2023-04-25T14:31:29.461Z,1.62
2023-04-25T14:33:58.549Z,1.65
2023-04-25T14:36:25.855Z,1.52
2023-04-25T14:38:52.331Z,1.61
2023-04-25T14:41:18.816Z,1.74
2023-04-25T14:43:45.230Z,1.52
2023-04-25T14:46:11.728Z,1.63
2023-04-25T14:48:38.271Z,1.50
2023-04-25T14:51:04.854Z,1.66
2023-04-25T14:53:31.297Z,1.75
2023-04-25T14:55:57.718Z,1.73
2023-04-25T14:58:24.239Z,1.62
2023-04-25T15:00:50.715Z,1.74
2023-04-25T15:03:18.118Z,1.71
2023-04-25T15:05:45.015Z,2.01
2023-04-25T15:08:11.446Z,2.25
2023-04-25T15:10:37.863Z,1.95
2023-04-25T15:13:04.338Z,1.68
2023-04-25T15:15:30.771Z,1.82
2023-04-25T15:17:59.292Z,1.73
2023-04-25T15:20:26.316Z,1.67
2023-04-25T15:22:52.776Z,1.78
2023-04-25T15:25:19.280Z,1.66
2023-04-25T15:27:45.908Z,1.57
2023-04-25T15:30:12.394Z,1.62
2023-04-25T15:32:39.005Z,1.63
2023-04-25T15:35:05.543Z,1.57
2023-04-25T15:37:31.969Z,1.73
2023-04-25T15:39:58.369Z,1.86
2023-04-25T15:42:24.829Z,1.81
2023-04-25T15:44:51.244Z,1.48
2023-04-25T15:47:17.630Z,1.66
2023-04-25T15:49:44.059Z,1.73
2023-04-25T15:52:10.529Z,1.69
2023-04-25T15:54:36.987Z,1.65
2023-04-25T15:57:03.443Z,1.78
2023-04-25T15:59:29.939Z,1.69
2023-04-25T16:01:56.468Z,1.58
2023-04-25T16:04:23.066Z,1.73
2023-04-25T16:06:49.758Z,1.82
2023-04-25T16:09:16.352Z,1.68
2023-04-25T16:11:42.980Z,1.81
2023-04-25T16:14:09.586Z,1.79
2023-04-25T16:16:36.406Z,1.93
2023-04-25T16:19:03.048Z,2.17
2023-04-25T16:21:29.608Z,1.94
2023-04-25T16:23:56.064Z,1.76
2023-04-25T16:26:22.753Z,1.79
2023-04-25T16:28:49.219Z,1.84
2023-04-25T16:31:15.906Z,1.62
2023-04-25T16:33:42.441Z,1.87
2023-04-25T16:36:08.972Z,1.75
2023-04-25T16:38:35.427Z,1.99
2023-04-25T16:41:01.924Z,2.33
2023-04-25T16:43:28.507Z,2.01
2023-04-25T16:45:54.984Z,2.22
2023-04-25T16:48:21.431Z,1.90
2023-04-25T16:50:47.882Z,1.64
2023-04-25T16:53:14.318Z,1.81
2023-04-25T16:55:40.805Z,1.80
2023-04-25T16:58:08.734Z,1.76
2023-04-25T17:00:36.909Z,1.66
2023-04-25T17:03:03.652Z,1.81
2023-04-25T17:05:30.194Z,1.77
2023-04-25T17:07:56.676Z,1.66
2023-04-25T17:10:23.151Z,1.90
2023-04-25T17:12:49.630Z,1.94
2023-04-25T17:15:16.116Z,2.08
2023-04-25T17:17:42.665Z,1.94
2023-04-25T17:20:09.279Z,2.13
2023-04-25T17:22:35.724Z,1.81
2023-04-25T17:25:02.237Z,1.82
2023-04-25T17:27:28.692Z,2.21
2023-04-25T17:29:55.226Z,2.12
2023-04-25T17:32:21.699Z,1.80
2023-04-25T17:34:48.151Z,2.00
2023-04-25T17:37:14.605Z,1.95
2023-04-25T17:39:41.414Z,1.81
2023-04-25T17:42:07.878Z,1.93
2023-04-25T17:44:34.325Z,1.93
2023-04-25T17:47:00.818Z,1.86
2023-04-25T17:49:27.383Z,2.13
2023-04-25T17:51:53.869Z,1.78
2023-04-25T17:54:20.325Z,1.81
2023-04-25T17:56:46.797Z,1.72
2023-04-25T17:59:13.356Z,1.79
2023-04-25T18:01:41.074Z,1.82
2023-04-25T18:04:10.280Z,1.72
2023-04-25T18:06:36.767Z,1.83
2023-04-25T18:09:03.377Z,1.92
2023-04-25T18:11:29.798Z,1.82
2023-04-25T18:13:56.250Z,1.95
2023-04-25T18:16:23.009Z,1.97
2023-04-25T18:18:49.876Z,1.95
2023-04-25T18:21:16.596Z,2.08
2023-04-25T18:23:43.228Z,1.94
2023-04-25T18:26:09.695Z,1.91
2023-04-25T18:28:36.204Z,1.89
2023-04-25T18:31:02.764Z,2.18
2023-04-25T18:33:29.270Z,2.04
2023-04-25T18:35:59.172Z,2.36
2023-04-25T18:38:34.862Z,2.36
2023-04-25T18:41:18.363Z,2.35
2023-04-25T18:43:49.645Z,2.41
2023-04-25T18:46:16.517Z,2.64
2023-04-25T18:48:43.066Z,2.76
2023-04-25T18:51:09.564Z,2.73
2023-04-25T18:53:36.102Z,3.18
2023-04-25T18:56:02.593Z,2.92
2023-04-25T18:58:29.037Z,2.62
2023-04-25T19:00:55.532Z,2.67
2023-04-25T19:03:22.335Z,2.24
2023-04-25T19:05:49.014Z,2.58
2023-04-25T19:08:15.539Z,3.47
2023-04-25T19:10:42.050Z,3.68
2023-04-25T19:13:08.647Z,3.45
2023-04-25T19:15:35.240Z,3.67
2023-04-25T19:18:01.799Z,3.72
2023-04-25T19:20:28.413Z,4.47
2023-04-25T19:22:54.977Z,4.28
2023-04-25T19:25:21.501Z,4.83
2023-04-25T19:27:48.006Z,5.49
2023-04-25T19:30:14.516Z,5.64
2023-04-25T19:32:41.055Z,5.47
2023-04-25T19:35:09.738Z,5.14
2023-04-25T19:37:37.548Z,4.42
2023-04-25T19:40:04.353Z,3.83
2023-04-25T19:42:30.852Z,3.79
2023-04-25T19:44:57.371Z,3.86
2023-04-25T19:47:24.058Z,3.86
2023-04-25T19:49:50.615Z,4.08
2023-04-25T19:52:17.104Z,4.45
2023-04-25T19:54:43.566Z,4.90
2023-04-25T19:57:10.049Z,4.88
2023-04-25T19:59:36.577Z,9.20
2023-04-25T20:02:03.064Z,24.62
2023-04-25T20:04:29.420Z,13.23
2023-04-25T20:06:55.733Z,7.16
2023-04-25T20:09:22.039Z,6.38
2023-04-25T20:11:48.302Z,5.96
2023-04-25T20:14:14.578Z,5.29
2023-04-25T20:16:40.886Z,10.31
2023-04-25T20:19:07.209Z,15.48
2023-04-25T20:21:33.470Z,18.39
2023-04-25T20:23:59.740Z,18.11
2023-04-25T20:26:26.013Z,14.79
2023-04-25T20:28:52.561Z,10.76
2023-04-25T20:31:19.156Z,10.52
2023-04-25T20:33:45.421Z,11.27
2023-04-25T20:36:11.675Z,8.47
2023-04-25T20:38:37.926Z,6.46
2023-04-25T20:41:04.185Z,5.87
2023-04-25T20:43:30.472Z,6.79
2023-04-25T20:45:56.775Z,7.44
2023-04-25T20:48:23.032Z,6.59
2023-04-25T20:50:49.290Z,6.32
2023-04-25T20:53:15.529Z,6.52
2023-04-25T20:55:41.764Z,6.09
2023-04-25T20:58:08.030Z,5.74
2023-04-25T21:00:34.294Z,5.62
2023-04-25T21:03:00.704Z,5.21
2023-04-25T21:05:27.064Z,5.44
2023-04-25T21:07:53.333Z,5.49
2023-04-25T21:10:19.594Z,5.48
2023-04-25T21:12:45.889Z,5.23
2023-04-25T21:15:12.185Z,5.00
2023-04-25T21:17:38.504Z,5.05
2023-04-25T21:20:04.758Z,5.25
2023-04-25T21:22:31.050Z,5.72
2023-04-25T21:24:57.335Z,5.74
2023-04-25T21:27:23.590Z,5.35
2023-04-25T21:29:49.872Z,5.69
2023-04-25T21:32:16.114Z,5.36
2023-04-25T21:34:42.358Z,5.52
2023-04-25T21:37:08.622Z,5.58
2023-04-25T21:39:34.861Z,6.04
2023-04-25T21:42:01.113Z,6.44
2023-04-25T21:44:27.361Z,5.77
2023-04-25T21:46:53.684Z,5.83
2023-04-25T21:49:19.983Z,5.53
2023-04-25T21:51:46.260Z,5.31
2023-04-25T21:54:12.506Z,5.41
2023-04-25T21:56:38.776Z,4.90
2023-04-25T21:59:05.019Z,4.89
2023-04-25T22:01:31.279Z,4.70
2023-04-25T22:03:57.769Z,4.36
2023-04-25T22:06:24.246Z,4.16
2023-04-25T22:08:50.654Z,4.42
2023-04-25T22:11:17.042Z,4.54
2023-04-25T22:13:43.308Z,4.26
2023-04-25T22:16:09.651Z,4.73
2023-04-25T22:18:35.997Z,4.90
2023-04-25T22:21:02.345Z,4.83
2023-04-25T22:23:28.613Z,4.49
2023-04-25T22:25:54.889Z,4.61
2023-04-25T22:28:21.181Z,4.58
2023-04-25T22:30:47.430Z,4.69
2023-04-25T22:33:13.763Z,4.71
2023-04-25T22:35:40.053Z,4.95
2023-04-25T22:38:06.307Z,4.62
2023-04-25T22:40:32.559Z,5.43
2023-04-25T22:42:58.882Z,4.96
2023-04-25T22:45:25.166Z,4.64
2023-04-25T22:47:51.469Z,4.84
2023-04-25T22:50:17.731Z,4.80
2023-04-25T22:52:43.993Z,4.65
2023-04-25T22:55:10.263Z,4.62
2023-04-25T22:57:36.521Z,4.57
2023-04-25T23:00:02.780Z,4.85
2023-04-25T23:02:29.137Z,5.22
2023-04-25T23:04:55.586Z,5.49
2023-04-25T23:07:21.830Z,5.40
2023-04-25T23:09:48.077Z,5.31
2023-04-25T23:12:14.339Z,5.40
2023-04-25T23:14:40.596Z,5.34
2023-04-25T23:17:07.043Z,5.02
2023-04-25T23:19:33.399Z,4.74
2023-04-25T23:21:59.650Z,4.67
2023-04-25T23:24:25.910Z,4.59
2023-04-25T23:26:52.168Z,4.57
2023-04-25T23:29:18.421Z,4.43
2023-04-25T23:31:44.673Z,4.27
2023-04-25T23:34:10.990Z,4.16
2023-04-25T23:36:37.264Z,4.50
2023-04-25T23:39:03.540Z,4.16
2023-04-25T23:41:29.829Z,4.27
2023-04-25T23:43:56.088Z,4.23
2023-04-25T23:46:22.391Z,4.22
2023-04-25T23:48:48.720Z,4.33
2023-04-25T23:51:14.979Z,4.56
2023-04-25T23:53:41.251Z,4.82
2023-04-25T23:56:07.531Z,4.48
2023-04-25T23:58:33.805Z,4.75
